Time;durP1;ratioP1;P1;durP2;ratioP2;P2;SDS_P1;SDS_P2;PMS_P1;PMS_P2;Temp;Humidity;BMP_temperature;BMP_pressure;BME280_temperature;BME280_humidity;BME280_pressure;Samples;Min_cycle;Max_cycle;Signal;HPM_P1;HPM_P2
2021/08/27 00:00:22;;;;;;;8.88;7.00;;;23.50;96.60;;;;;;4865370;29;20033;-84
2021/08/27 00:02:48;;;;;;;9.52;6.80;;;23.50;96.60;;;;;;4881737;29;20041;-85
2021/08/27 00:05:13;;;;;;;7.78;5.97;;;23.50;96.50;;;;;;4882175;29;20433;-84
2021/08/27 00:07:39;;;;;;;8.65;6.65;;;23.50;96.80;;;;;;4864967;29;20491;-87
2021/08/27 00:10:05;;;;;;;9.70;7.07;;;23.50;96.60;;;;;;4849898;29;20484;-84
2021/08/27 00:12:31;;;;;;;9.15;6.47;;;23.50;96.60;;;;;;4865072;29;20037;-84
2021/08/27 00:14:59;;;;;;;8.77;6.35;;;23.50;96.60;;;;;;4881551;29;20041;-84
2021/08/27 00:17:29;;;;;;;9.93;6.03;;;23.50;96.50;;;;;;4849658;29;20043;-85
2021/08/27 00:19:57;;;;;;;8.70;6.35;;;23.50;96.50;;;;;;4881520;29;20112;-85
2021/08/27 00:22:23;;;;;;;8.27;6.35;;;23.50;96.50;;;;;;4881678;29;20527;-84
2021/08/27 00:24:48;;;;;;;7.60;5.65;;;23.40;96.50;;;;;;4881407;29;20040;-84
2021/08/27 00:27:14;;;;;;;9.85;6.13;;;23.40;96.50;;;;;;4865203;29;20044;-84
2021/08/27 00:29:39;;;;;;;7.15;5.55;;;23.40;96.50;;;;;;4864822;29;20033;-85
2021/08/27 00:32:05;;;;;;;7.88;5.93;;;23.40;96.50;;;;;;4864711;29;20399;-84
2021/08/27 00:34:31;;;;;;;7.28;5.25;;;23.50;96.50;;;;;;4881281;29;20052;-83
2021/08/27 00:36:56;;;;;;;8.52;5.78;;;23.40;96.50;;;;;;4881133;29;20045;-85
2021/08/27 00:39:22;;;;;;;7.45;5.38;;;23.40;96.60;;;;;;4863860;29;20072;-84
2021/08/27 00:41:48;;;;;;;6.07;4.68;;;23.40;96.60;;;;;;4880855;29;20037;-84
2021/08/27 00:44:13;;;;;;;7.43;5.20;;;23.40;96.60;;;;;;4881278;29;20048;-84
2021/08/27 00:46:39;;;;;;;7.53;5.20;;;23.40;96.60;;;;;;4881309;29;20037;-84
2021/08/27 00:49:04;;;;;;;6.80;5.22;;;23.40;96.60;;;;;;4863995;29;20447;-84
2021/08/27 00:51:30;;;;;;;8.07;5.05;;;23.40;96.60;;;;;;4880861;29;20037;-84
2021/08/27 00:53:56;;;;;;;8.20;5.72;;;23.40;96.60;;;;;;4880545;29;20063;-85
2021/08/27 00:56:22;;;;;;;8.65;5.53;;;23.40;96.60;;;;;;4864479;29;20041;-84
2021/08/27 00:58:47;;;;;;;8.80;5.70;;;23.40;96.60;;;;;;4864248;29;20045;-84
2021/08/27 01:01:13;;;;;;;8.25;5.55;;;23.40;96.60;;;;;;4880990;29;20069;-84
2021/08/27 01:03:38;;;;;;;6.85;5.18;;;23.40;96.60;;;;;;4864332;29;20541;-83
2021/08/27 01:06:17;;;;;;;8.13;5.85;;;23.50;96.70;;;;;;4864066;29;20376;-83
2021/08/27 01:09:05;;;;;;;9.95;5.50;;;23.40;96.60;;;;;;4864193;29;20040;-83
2021/08/27 01:11:34;;;;;;;7.97;5.38;;;23.40;96.60;;;;;;4880906;29;20021;-83
2021/08/27 01:14:06;;;;;;;8.50;5.53;;;23.40;96.50;;;;;;4880397;29;20043;-84
2021/08/27 01:17:00;;;;;;;8.68;5.80;;;23.40;96.60;;;;;;4863891;29;20037;-83
2021/08/27 01:19:31;;;;;;;6.38;5.25;;;23.40;96.60;;;;;;4853381;29;20040;-83
2021/08/27 01:22:25;;;;;;;7.80;5.05;;;23.40;96.60;;;;;;4880121;29;20093;-83
2021/08/27 01:24:52;;;;;;;7.32;5.30;;;23.40;96.60;;;;;;4880381;29;20040;-84
2021/08/27 01:27:19;;;;;;;8.77;5.15;;;23.40;96.60;;;;;;4880720;29;20116;-83
2021/08/27 01:29:56;;;;;;;9.50;5.00;;;23.40;96.60;;;;;;4880734;29;20041;-84
2021/08/27 01:32:50;;;;;;;6.20;5.15;;;23.40;96.60;;;;;;4880506;29;20034;-84
2021/08/27 01:35:16;;;;;;;9.32;5.05;;;23.40;96.50;;;;;;4863274;29;20043;-83
2021/08/27 01:37:48;;;;;;;7.32;4.93;;;23.40;96.50;;;;;;4880204;29;20037;-83
2021/08/27 01:40:20;;;;;;;8.02;4.65;;;23.40;96.50;;;;;;4880353;29;20032;-84
2021/08/27 01:42:46;;;;;;;8.38;5.30;;;23.40;96.50;;;;;;4880210;29;20085;-84
2021/08/27 01:45:14;;;;;;;8.38;5.00;;;23.40;96.50;;;;;;4848118;29;20041;-84
2021/08/27 01:47:41;;;;;;;8.13;4.60;;;23.40;96.50;;;;;;4880237;29;20472;-83
2021/08/27 01:50:08;;;;;;;7.22;4.70;;;23.40;96.50;;;;;;4879277;29;20028;-83
2021/08/27 01:52:35;;;;;;;7.40;4.85;;;23.40;96.50;;;;;;4863436;29;20543;-83
2021/08/27 01:55:02;;;;;;;8.77;5.25;;;23.40;96.50;;;;;;4879369;29;20045;-83
2021/08/27 01:57:28;;;;;;;8.52;4.85;;;23.40;96.50;;;;;;4880001;29;20033;-84
2021/08/27 01:59:55;;;;;;;7.80;5.20;;;23.40;96.40;;;;;;4862748;29;20066;-84
2021/08/27 02:02:22;;;;;;;7.57;4.47;;;23.40;96.40;;;;;;4879715;29;20056;-85
2021/08/27 02:04:54;;;;;;;9.05;5.40;;;23.40;96.40;;;;;;4847943;29;20059;-84
2021/08/27 02:07:20;;;;;;;8.68;4.68;;;23.40;96.40;;;;;;4879878;29;20044;-85
2021/08/27 02:09:48;;;;;;;7.90;4.68;;;23.40;96.40;;;;;;4879884;29;20029;-85
2021/08/27 02:12:15;;;;;;;9.40;5.95;;;23.40;96.40;;;;;;4879564;29;20037;-85
2021/08/27 02:14:42;;;;;;;7.95;5.20;;;23.40;96.40;;;;;;4847712;29;20040;-84
2021/08/27 02:17:09;;;;;;;8.30;5.65;;;23.40;96.40;;;;;;4879490;29;20029;-83
2021/08/27 02:19:36;;;;;;;8.98;5.38;;;23.40;96.40;;;;;;4879862;29;20133;-83
2021/08/27 02:22:06;;;;;;;7.28;5.15;;;23.40;96.50;;;;;;4862752;29;20464;-84
2021/08/27 02:24:43;;;;;;;9.63;5.07;;;23.40;96.40;;;;;;4862599;29;20563;-83
2021/08/27 02:27:09;;;;;;;8.93;5.07;;;23.40;96.40;;;;;;4879433;29;20033;-84
2021/08/27 02:29:37;;;;;;;6.20;4.70;;;23.40;96.40;;;;;;4879425;29;20044;-83
2021/08/27 02:32:06;;;;;;;7.63;5.00;;;23.40;96.40;;;;;;4862674;29;20040;-84
2021/08/27 02:34:35;;;;;;;5.90;4.38;;;23.40;96.40;;;;;;4862768;29;20033;-83
2021/08/27 02:37:03;;;;;;;7.18;5.38;;;23.40;96.50;;;;;;4862451;29;20431;-83
2021/08/27 02:39:29;;;;;;;8.43;4.97;;;23.40;96.40;;;;;;4879503;29;20120;-83
2021/08/27 02:41:56;;;;;;;9.75;5.80;;;23.40;96.40;;;;;;4879179;29;20171;-86
2021/08/27 02:44:23;;;;;;;6.43;4.63;;;23.40;96.40;;;;;;4879446;29;20108;-84
2021/08/27 02:46:48;;;;;;;6.65;4.75;;;23.40;96.40;;;;;;4879479;29;20057;-84
2021/08/27 02:49:14;;;;;;;8.20;4.55;;;23.40;96.40;;;;;;4879102;29;20064;-83
2021/08/27 02:51:58;;;;;;;6.25;4.85;;;23.40;96.40;;;;;;4879415;29;20047;-84
2021/08/27 02:54:27;;;;;;;7.22;4.75;;;23.40;96.30;;;;;;4877516;29;20048;-83
2021/08/27 02:56:54;;;;;;;6.32;4.97;;;23.40;96.30;;;;;;4879002;29;20461;-83
2021/08/27 02:59:22;;;;;;;6.32;4.47;;;23.40;96.30;;;;;;4861706;29;20093;-86
2021/08/27 03:01:52;;;;;;;5.95;4.35;;;23.40;96.30;;;;;;4880584;29;20121;-83
2021/08/27 03:04:42;;;;;;;4.65;3.97;;;23.40;96.30;;;;;;4866686;29;20471;-83
2021/08/27 03:07:11;;;;;;;9.27;5.05;;;23.40;96.30;;;;;;4883104;29;20040;-84
2021/08/27 03:09:48;;;;;;;7.63;4.68;;;23.40;96.20;;;;;;4882923;29;20464;-83
2021/08/27 03:12:18;;;;;;;7.75;4.72;;;23.40;96.20;;;;;;4865777;29;20029;-83
2021/08/27 03:14:53;;;;;;;6.32;4.50;;;23.40;96.10;;;;;;4882863;29;20029;-84
2021/08/27 03:17:20;;;;;;;6.10;4.18;;;23.40;96.10;;;;;;4865942;29;20404;-84
2021/08/27 03:19:54;;;;;;;5.32;4.25;;;23.40;96.00;;;;;;4865959;29;20067;-83
2021/08/27 03:22:24;;;;;;;5.95;4.63;;;23.40;96.00;;;;;;4882308;29;20476;-83
2021/08/27 03:25:12;;;;;;;6.47;4.40;;;23.40;96.00;;;;;;4865654;29;20052;-85
2021/08/27 03:27:53;;;;;;;6.30;4.20;;;23.30;95.90;;;;;;4882760;29;20025;-84
2021/08/27 03:30:23;;;;;;;7.05;4.50;;;23.30;95.80;;;;;;4865616;29;20037;-83
2021/08/27 03:32:57;;;;;;;7.28;4.63;;;23.30;95.80;;;;;;4882556;29;20108;-83
2021/08/27 03:35:23;;;;;;;7.63;4.80;;;23.30;95.80;;;;;;4865383;29;20036;-83
2021/08/27 03:37:50;;;;;;;7.43;5.13;;;23.30;95.70;;;;;;4882489;29;20149;-83
2021/08/27 03:40:18;;;;;;;6.28;4.50;;;23.30;95.70;;;;;;4882009;29;20563;-83
2021/08/27 03:42:45;;;;;;;7.00;4.32;;;23.30;95.70;;;;;;4882029;29;20040;-83
2021/08/27 03:45:12;;;;;;;7.05;5.03;;;23.30;95.70;;;;;;4865599;29;20111;-83
2021/08/27 03:47:40;;;;;;;7.07;4.68;;;23.30;95.70;;;;;;4865508;29;20037;-83
2021/08/27 03:50:08;;;;;;;5.90;4.20;;;23.20;95.70;;;;;;4882033;29;20460;-84
2021/08/27 03:52:35;;;;;;;7.35;4.97;;;23.20;95.70;;;;;;4865485;29;20037;-83
2021/08/27 03:55:01;;;;;;;7.00;4.88;;;23.20;95.70;;;;;;4865446;29;20452;-83
2021/08/27 03:57:27;;;;;;;7.05;5.03;;;23.20;95.70;;;;;;4882053;29;20067;-84
2021/08/27 03:59:53;;;;;;;6.82;4.90;;;23.20;95.70;;;;;;4882155;29;20033;-83
2021/08/27 04:02:19;;;;;;;7.13;5.22;;;23.30;95.70;;;;;;4864933;29;20040;-83
2021/08/27 04:04:45;;;;;;;8.05;5.70;;;23.20;95.70;;;;;;4849808;29;20033;-83
2021/08/27 04:07:10;;;;;;;8.43;6.05;;;23.20;95.70;;;;;;4865419;29;20033;-83
2021/08/27 04:09:36;;;;;;;7.88;6.22;;;23.30;95.70;;;;;;4881439;29;20476;-83
2021/08/27 04:12:04;;;;;;;8.18;6.10;;;23.30;95.70;;;;;;4864754;29;20472;-83
2021/08/27 04:14:30;;;;;;;10.27;6.80;;;23.30;95.70;;;;;;4864460;29;20083;-83
2021/08/27 04:16:58;;;;;;;11.05;7.57;;;23.30;95.80;;;;;;4881560;29;20424;-82
2021/08/27 04:19:24;;;;;;;11.40;8.13;;;23.30;95.80;;;;;;4880786;29;20108;-84
2021/08/27 04:21:50;;;;;;;10.75;7.68;;;23.30;95.80;;;;;;4881357;29;20228;-83
2021/08/27 04:24:15;;;;;;;10.80;8.45;;;23.30;95.70;;;;;;4864354;29;20033;-83
2021/08/27 04:26:41;;;;;;;12.32;9.40;;;23.30;95.80;;;;;;4863359;29;20396;-83
2021/08/27 04:29:11;;;;;;;12.02;9.18;;;23.30;95.70;;;;;;4849225;29;20033;-85
2021/08/27 04:31:37;;;;;;;12.98;9.55;;;23.30;95.70;;;;;;4881188;29;20029;-83
2021/08/27 04:34:03;;;;;;;13.23;10.23;;;23.30;95.80;;;;;;4864647;29;20033;-83
2021/08/27 04:36:28;;;;;;;14.63;11.00;;;23.40;95.80;;;;;;4864265;29;20100;-83
2021/08/27 04:38:54;;;;;;;14.20;10.90;;;23.30;95.80;;;;;;4880917;29;20037;-83
2021/08/27 04:41:20;;;;;;;18.00;12.98;;;23.40;95.80;;;;;;4880762;29;20044;-83
2021/08/27 04:43:48;;;;;;;19.45;14.43;;;23.40;95.80;;;;;;4864672;29;20092;-83
2021/08/27 04:46:14;;;;;;;17.15;14.15;;;23.40;95.80;;;;;;4880881;29;20107;-83
2021/08/27 04:48:40;;;;;;;22.08;16.45;;;23.40;95.80;;;;;;4849106;29;20037;-83
2021/08/27 04:51:05;;;;;;;19.63;15.75;;;23.40;95.80;;;;;;4849015;29;20509;-83
2021/08/27 04:53:31;;;;;;;23.17;17.30;;;23.40;95.80;;;;;;4848452;29;20535;-84
2021/08/27 04:55:57;;;;;;;21.35;16.80;;;23.40;95.80;;;;;;4880626;29;20401;-82
2021/08/27 04:58:25;;;;;;;22.25;17.30;;;23.40;95.80;;;;;;4863979;29;20035;-83
2021/08/27 05:00:50;;;;;;;25.38;18.60;;;23.40;95.80;;;;;;4848845;29;20047;-83
2021/08/27 05:03:16;;;;;;;23.80;18.45;;;23.40;95.80;;;;;;4864467;29;20033;-83
2021/08/27 05:05:42;;;;;;;26.05;19.27;;;23.40;95.80;;;;;;4864456;29;20044;-86
2021/08/27 05:08:08;;;;;;;26.85;20.23;;;23.40;95.80;;;;;;4864218;29;20061;-83
2021/08/27 05:10:33;;;;;;;26.73;20.75;;;23.40;95.80;;;;;;4848616;29;20472;-83
2021/08/27 05:12:59;;;;;;;26.10;20.75;;;23.40;95.80;;;;;;4864002;29;20035;-82
2021/08/27 05:15:25;;;;;;;28.10;22.48;;;23.40;95.80;;;;;;4863891;29;20113;-83
2021/08/27 05:17:50;;;;;;;31.77;23.75;;;23.40;95.80;;;;;;4848587;29;20480;-82
2021/08/27 05:20:16;;;;;;;30.95;23.83;;;23.40;95.90;;;;;;4880344;29;20111;-83
2021/08/27 05:22:41;;;;;;;33.42;25.40;;;23.40;95.90;;;;;;4864308;29;20050;-83
2021/08/27 05:25:08;;;;;;;30.50;24.05;;;23.40;96.00;;;;;;4863449;29;20036;-83
2021/08/27 05:27:38;;;;;;;31.75;23.48;;;23.40;96.10;;;;;;4863782;29;20033;-83
2021/08/27 05:30:08;;;;;;;27.80;21.77;;;23.30;96.00;;;;;;4880510;29;20033;-83
2021/08/27 05:32:34;;;;;;;29.77;20.73;;;23.40;96.10;;;;;;4863453;29;20029;-83
2021/08/27 05:35:00;;;;;;;24.92;18.90;;;23.40;96.10;;;;;;4880047;29;20523;-82
2021/08/27 05:37:25;;;;;;;23.63;18.25;;;23.40;96.00;;;;;;4863406;29;20044;-83
2021/08/27 05:39:52;;;;;;;22.52;16.55;;;23.40;96.00;;;;;;4847725;29;20029;-82
2021/08/27 05:42:18;;;;;;;21.15;15.80;;;23.40;96.00;;;;;;4879127;29;20076;-83
2021/08/27 05:44:43;;;;;;;19.88;13.82;;;23.40;96.00;;;;;;4848198;29;20041;-83
2021/08/27 05:47:09;;;;;;;18.75;13.00;;;23.40;96.00;;;;;;4862843;29;20400;-82
2021/08/27 05:49:35;;;;;;;14.90;11.93;;;23.50;96.10;;;;;;4863108;29;20496;-82
2021/08/27 05:52:02;;;;;;;15.93;11.60;;;23.50;96.00;;;;;;4863614;29;20033;-82
2021/08/27 05:54:27;;;;;;;14.68;10.32;;;23.50;96.00;;;;;;4879717;29;20436;-80
2021/08/27 05:56:53;;;;;;;13.48;9.98;;;23.50;96.00;;;;;;4880189;29;20040;-81
2021/08/27 05:59:19;;;;;;;12.20;9.27;;;23.50;95.90;;;;;;4879631;29;20429;-82
2021/08/27 06:01:44;;;;;;;11.68;8.55;;;23.50;95.90;;;;;;4847790;29;20479;-81
2021/08/27 06:04:10;;;;;;;11.10;8.35;;;23.50;95.80;;;;;;4879273;29;20115;-82
2021/08/27 06:06:36;;;;;;;13.30;8.85;;;23.50;95.70;;;;;;4862456;29;20031;-82
2021/08/27 06:09:04;;;;;;;8.50;7.32;;;23.50;95.70;;;;;;4863180;29;20029;-81
2021/08/27 06:11:30;;;;;;;9.50;7.20;;;23.50;95.70;;;;;;4863483;29;20072;-82
2021/08/27 06:13:56;;;;;;;11.63;7.38;;;23.50;95.70;;;;;;4847449;29;20440;-82
2021/08/27 06:16:22;;;;;;;9.00;6.40;;;23.50;95.60;;;;;;4862751;29;20037;-82
2021/08/27 06:18:47;;;;;;;10.50;7.03;;;23.50;95.80;;;;;;4862886;29;20337;-81
2021/08/27 06:21:13;;;;;;;6.88;5.70;;;23.50;95.60;;;;;;4862563;29;20101;-81
2021/08/27 06:23:39;;;;;;;9.13;6.20;;;23.50;95.60;;;;;;4879529;29;20037;-81
2021/08/27 06:26:04;;;;;;;8.13;6.07;;;23.40;95.60;;;;;;4862920;29;20037;-81
2021/08/27 06:28:30;;;;;;;9.10;6.25;;;23.40;95.60;;;;;;4862666;29;20037;-81
2021/08/27 06:30:55;;;;;;;8.27;6.10;;;23.40;95.60;;;;;;4879607;29;20037;-81
2021/08/27 06:33:21;;;;;;;8.93;5.57;;;23.40;95.50;;;;;;4862778;29;20025;-82
2021/08/27 06:35:47;;;;;;;7.93;5.20;;;23.40;95.50;;;;;;4878969;29;20033;-81
2021/08/27 06:38:25;;;;;;;5.72;4.40;;;23.40;95.50;;;;;;4879806;29;20041;-82
2021/08/27 06:40:58;;;;;;;6.65;4.80;;;23.40;95.50;;;;;;4880409;29;20052;-80
2021/08/27 06:43:27;;;;;;;6.15;4.43;;;23.40;95.50;;;;;;4879038;29;20480;-81
2021/08/27 06:45:54;;;;;;;5.68;4.07;;;23.40;95.50;;;;;;4863065;29;20037;-82
2021/08/27 06:48:19;;;;;;;4.25;3.53;;;23.40;95.50;;;;;;4878528;29;20040;-81
2021/08/27 06:50:45;;;;;;;5.63;4.00;;;23.40;95.50;;;;;;4847092;29;20033;-81
2021/08/27 06:53:11;;;;;;;5.72;3.95;;;23.40;95.50;;;;;;4862840;29;20103;-81
2021/08/27 06:55:37;;;;;;;4.75;3.50;;;23.40;95.50;;;;;;4878762;29;20501;-81
2021/08/27 06:58:03;;;;;;;5.82;3.67;;;23.40;95.50;;;;;;4878018;29;20029;-81
2021/08/27 07:00:29;;;;;;;6.50;3.22;;;23.40;95.50;;;;;;4862407;29;20115;-83
2021/08/27 07:02:55;;;;;;;5.55;3.45;;;23.40;95.50;;;;;;4879409;29;20036;-81
2021/08/27 07:05:21;;;;;;;4.20;2.92;;;23.40;95.50;;;;;;4862760;29;20045;-81
2021/08/27 07:07:46;;;;;;;6.53;3.30;;;23.40;95.50;;;;;;4862257;29;20033;-80
2021/08/27 07:10:13;;;;;;;4.60;3.10;;;23.40;95.50;;;;;;4879278;29;20029;-81
2021/08/27 07:12:39;;;;;;;3.70;2.78;;;23.40;95.50;;;;;;4879036;29;20029;-81
2021/08/27 07:15:06;;;;;;;4.38;2.80;;;23.40;95.50;;;;;;4862594;29;20043;-81
2021/08/27 07:17:31;;;;;;;4.85;2.95;;;23.40;95.50;;;;;;4878949;29;20089;-82
2021/08/27 07:19:57;;;;;;;5.03;3.00;;;23.40;95.40;;;;;;4862381;29;20065;-82
2021/08/27 07:22:23;;;;;;;3.25;2.30;;;23.40;95.30;;;;;;4878791;29;20033;-82
2021/08/27 07:24:48;;;;;;;3.92;2.65;;;23.40;95.20;;;;;;4878677;29;20432;-81
2021/08/27 07:27:14;;;;;;;4.68;2.17;;;23.50;95.20;;;;;;4879056;29;20468;-81
2021/08/27 07:29:39;;;;;;;3.92;2.15;;;23.50;95.00;;;;;;4861998;29;20298;-81
2021/08/27 07:32:11;;;;;;;3.42;2.00;;;23.40;94.90;;;;;;4862020;29;20469;-81
2021/08/27 07:34:36;;;;;;;4.88;2.63;;;23.50;94.90;;;;;;4861819;29;20467;-81
2021/08/27 07:37:02;;;;;;;5.05;2.60;;;23.40;94.80;;;;;;4878707;29;20072;-81
2021/08/27 07:39:28;;;;;;;3.58;2.28;;;23.40;94.80;;;;;;4878384;29;20033;-82
2021/08/27 07:41:53;;;;;;;6.82;2.38;;;23.40;94.80;;;;;;4862292;29;20041;-81
2021/08/27 07:44:19;;;;;;;3.97;1.83;;;23.40;94.70;;;;;;4862189;29;20033;-81
2021/08/27 07:46:45;;;;;;;5.20;2.40;;;23.40;94.70;;;;;;4862247;29;20037;-82
2021/08/27 07:49:10;;;;;;;5.60;2.70;;;23.40;94.70;;;;;;4865481;29;20490;-81
2021/08/27 07:51:36;;;;;;;3.65;2.65;;;23.40;94.70;;;;;;4865482;29;20037;-81
2021/08/27 07:54:02;;;;;;;4.70;2.40;;;23.40;94.70;;;;;;4865514;29;20129;-80
2021/08/27 07:56:27;;;;;;;5.57;2.22;;;23.40;94.80;;;;;;4865307;29;20037;-81
2021/08/27 07:58:53;;;;;;;4.30;2.30;;;23.40;94.80;;;;;;4881861;29;20116;-81
2021/08/27 08:01:18;;;;;;;3.58;2.25;;;23.40;94.80;;;;;;4865472;29;20037;-81
2021/08/27 08:03:44;;;;;;;4.30;2.20;;;23.40;94.90;;;;;;4865174;29;20033;-81
2021/08/27 08:06:10;;;;;;;5.25;2.25;;;23.40;94.90;;;;;;4882185;29;20108;-80
2021/08/27 08:08:36;;;;;;;6.43;2.35;;;23.40;94.90;;;;;;4881690;29;20071;-80
2021/08/27 08:11:02;;;;;;;3.85;2.00;;;23.40;94.90;;;;;;4865116;29;20490;-81
2021/08/27 08:13:27;;;;;;;4.28;2.45;;;23.40;94.90;;;;;;4865227;29;20474;-81
2021/08/27 08:15:53;;;;;;;5.70;1.92;;;23.40;94.90;;;;;;4864905;29;20037;-81
2021/08/27 08:18:18;;;;;;;4.00;2.10;;;23.40;94.90;;;;;;4864907;29;20041;-81
2021/08/27 08:20:44;;;;;;;4.47;2.40;;;23.40;94.90;;;;;;4864696;29;20052;-81
2021/08/27 08:23:10;;;;;;;4.88;2.30;;;23.40;94.90;;;;;;4864934;29;20037;-81
2021/08/27 08:25:36;;;;;;;5.22;2.58;;;23.40;94.90;;;;;;4864888;29;20099;-80
2021/08/27 08:28:05;;;;;;;4.32;2.03;;;23.40;94.90;;;;;;4881557;29;20025;-81
2021/08/27 08:30:31;;;;;;;3.85;2.00;;;23.40;94.90;;;;;;4881502;29;20467;-81
2021/08/27 08:32:57;;;;;;;5.10;2.28;;;23.40;94.90;;;;;;4864468;29;20045;-81
2021/08/27 08:35:22;;;;;;;3.03;2.08;;;23.40;94.90;;;;;;4864731;29;20043;-81
2021/08/27 08:37:48;;;;;;;4.80;2.30;;;23.40;94.90;;;;;;4864621;29;20456;-81
2021/08/27 08:40:14;;;;;;;6.95;2.45;;;23.40;94.90;;;;;;4881205;29;20068;-81
2021/08/27 08:42:41;;;;;;;4.75;2.30;;;23.40;94.90;;;;;;4881100;29;20183;-81
2021/08/27 08:45:06;;;;;;;4.30;2.60;;;23.40;94.90;;;;;;4881280;29;20060;-81
2021/08/27 08:47:36;;;;;;;4.38;2.22;;;23.40;94.90;;;;;;4848805;29;20476;-82
2021/08/27 08:50:03;;;;;;;5.15;2.55;;;23.40;94.80;;;;;;4881237;29;20119;-82
2021/08/27 08:52:30;;;;;;;3.70;2.58;;;23.40;94.80;;;;;;4880631;29;20451;-82
2021/08/27 08:54:57;;;;;;;5.10;2.50;;;23.40;94.80;;;;;;4881056;29;20040;-81
2021/08/27 08:57:22;;;;;;;3.83;2.17;;;23.40;94.90;;;;;;4881119;29;20048;-82
2021/08/27 08:59:48;;;;;;;3.92;2.30;;;23.40;94.90;;;;;;4863629;29;20033;-83
2021/08/27 09:02:14;;;;;;;5.57;2.65;;;23.40;94.90;;;;;;4864359;29;20472;-82
2021/08/27 09:04:40;;;;;;;2.97;2.10;;;23.50;95.10;;;;;;4862178;29;20033;-83
2021/08/27 09:07:05;;;;;;;3.88;2.38;;;23.50;94.80;;;;;;4864471;29;20037;-82
2021/08/27 09:09:34;;;;;;;4.38;2.50;;;23.50;94.80;;;;;;4881069;29;20420;-82
2021/08/27 09:12:14;;;;;;;4.70;2.85;;;23.50;94.70;;;;;;4863699;29;20033;-82
2021/08/27 09:14:40;;;;;;;5.47;2.55;;;23.60;94.70;;;;;;4880192;29;20044;-83
2021/08/27 09:17:06;;;;;;;5.00;2.90;;;23.50;94.60;;;;;;4880622;29;20044;-82
2021/08/27 09:19:52;;;;;;;5.45;2.72;;;23.60;94.60;;;;;;4880685;29;20037;-81
2021/08/27 09:22:18;;;;;;;4.40;2.42;;;23.60;94.50;;;;;;4845254;29;20057;-81
2021/08/27 09:25:02;;;;;;;3.75;2.22;;;23.60;94.60;;;;;;4844987;29;20440;-81
2021/08/27 09:27:28;;;;;;;5.07;2.60;;;23.60;94.60;;;;;;4861782;29;20116;-81
2021/08/27 09:29:53;;;;;;;3.92;2.50;;;23.60;94.60;;;;;;4862151;29;20109;-83
2021/08/27 09:32:24;;;;;;;4.57;2.58;;;23.60;94.60;;;;;;4845507;29;20069;-81
2021/08/27 09:35:15;;;;;;;6.82;2.40;;;23.60;94.60;;;;;;4844989;29;20576;-80
2021/08/27 09:37:45;;;;;;;5.13;2.55;;;23.60;94.60;;;;;;4861636;29;20044;-81
2021/08/27 09:40:14;;;;;;;5.90;2.63;;;23.60;94.60;;;;;;4861431;29;20425;-81
2021/08/27 09:42:45;;;;;;;4.63;2.65;;;23.60;94.50;;;;;;4845038;29;20030;-81
2021/08/27 09:45:11;;;;;;;4.07;2.30;;;23.60;94.50;;;;;;4861703;29;20135;-80
2021/08/27 09:47:38;;;;;;;5.13;2.50;;;23.60;94.50;;;;;;4861581;29;20038;-82
2021/08/27 09:50:24;;;;;;;5.28;2.55;;;23.60;94.50;;;;;;4861064;29;20551;-82
2021/08/27 09:52:52;;;;;;;4.60;2.65;;;23.60;94.60;;;;;;4844019;29;20119;-80
2021/08/27 09:55:17;;;;;;;3.45;2.00;;;23.60;94.60;;;;;;4861416;29;20065;-81
2021/08/27 09:57:49;;;;;;;3.17;2.17;;;23.60;94.70;;;;;;4860444;29;20064;-83
2021/08/27 10:00:19;;;;;;;4.30;2.10;;;23.60;94.70;;;;;;4844554;29;20029;-81
2021/08/27 10:02:47;;;;;;;3.72;2.30;;;23.70;94.70;;;;;;4845034;29;20062;-82
2021/08/27 10:05:13;;;;;;;4.43;2.20;;;23.70;94.70;;;;;;4845097;29;20038;-82
2021/08/27 10:07:40;;;;;;;3.08;1.90;;;23.70;94.70;;;;;;4861374;29;20049;-82
2021/08/27 10:10:15;;;;;;;5.22;2.50;;;23.70;94.70;;;;;;4860697;29;20506;-82
2021/08/27 10:12:44;;;;;;;3.45;2.05;;;23.60;94.70;;;;;;4844246;29;20041;-81
2021/08/27 10:15:11;;;;;;;3.30;1.80;;;23.70;94.70;;;;;;4861113;29;20134;-81
2021/08/27 10:17:38;;;;;;;4.93;2.15;;;23.70;94.60;;;;;;4844627;29;20128;-82
2021/08/27 10:20:07;;;;;;;5.03;2.40;;;23.70;94.60;;;;;;4847712;29;20131;-82
2021/08/27 10:22:40;;;;;;;3.35;1.98;;;23.60;94.60;;;;;;4879602;29;20025;-82
2021/08/27 10:25:09;;;;;;;5.17;2.17;;;23.60;94.90;;;;;;4879409;29;20048;-82
2021/08/27 10:27:36;;;;;;;4.50;2.15;;;23.70;94.60;;;;;;4862701;29;20032;-82
2021/08/27 10:30:04;;;;;;;3.33;1.85;;;23.70;94.70;;;;;;4879324;29;20025;-81
2021/08/27 10:32:42;;;;;;;4.57;2.13;;;23.70;94.70;;;;;;4863156;29;20033;-82
2021/08/27 10:35:40;;;;;;;6.07;2.28;;;23.60;94.70;;;;;;4879349;29;20040;-82
2021/08/27 10:38:05;;;;;;;4.57;2.05;;;23.70;94.70;;;;;;4879116;29;20036;-81
2021/08/27 10:40:41;;;;;;;4.70;2.22;;;23.70;94.70;;;;;;4879290;29;20029;-81
2021/08/27 10:43:07;;;;;;;3.50;2.00;;;23.70;94.70;;;;;;4862372;29;20033;-81
2021/08/27 10:45:33;;;;;;;4.47;1.95;;;23.70;94.70;;;;;;4879403;29;20472;-82
2021/08/27 10:48:16;;;;;;;3.22;2.00;;;23.70;94.70;;;;;;4879246;29;20468;-82
2021/08/27 10:50:53;;;;;;;5.13;2.28;;;23.70;94.70;;;;;;4878998;29;20033;-83
2021/08/27 10:53:32;;;;;;;4.80;2.25;;;23.70;94.60;;;;;;4879038;29;20040;-82
2021/08/27 10:56:06;;;;;;;4.80;2.35;;;23.70;94.60;;;;;;4879110;29;20033;-82
2021/08/27 10:59:04;;;;;;;4.70;2.05;;;23.70;94.60;;;;;;4879301;29;20037;-82
2021/08/27 11:01:34;;;;;;;3.97;2.10;;;23.70;94.60;;;;;;4878642;29;20037;-81
2021/08/27 11:04:25;;;;;;;3.55;1.83;;;23.70;94.60;;;;;;4862455;29;20036;-81
2021/08/27 11:06:58;;;;;;;4.65;2.38;;;23.70;94.60;;;;;;4862462;29;20029;-82
2021/08/27 11:09:26;;;;;;;3.87;2.30;;;23.70;94.60;;;;;;4862309;29;20048;-81
2021/08/27 11:12:11;;;;;;;3.33;2.00;;;23.70;94.50;;;;;;4862403;29;20309;-86
2021/08/27 11:14:45;;;;;;;5.30;2.53;;;23.70;94.50;;;;;;4879009;29;20029;-81
2021/08/27 11:17:12;;;;;;;6.55;2.30;;;23.70;94.50;;;;;;4862094;29;20080;-81
2021/08/27 11:19:43;;;;;;;5.25;2.25;;;23.70;94.50;;;;;;4862096;29;20089;-82
2021/08/27 11:22:12;;;;;;;5.50;2.33;;;23.70;94.60;;;;;;4863289;29;20064;-81
2021/08/27 11:24:42;;;;;;;5.28;2.20;;;23.70;94.60;;;;;;4882621;29;20033;-83
2021/08/27 11:27:20;;;;;;;4.97;2.38;;;23.70;94.70;;;;;;4866017;29;20025;-83
2021/08/27 11:29:49;;;;;;;3.08;2.00;;;23.60;94.70;;;;;;4865911;29;20041;-83
2021/08/27 11:32:27;;;;;;;3.10;2.25;;;23.70;94.80;;;;;;4865096;29;20814;-83
2021/08/27 11:35:01;;;;;;;4.00;1.90;;;23.70;94.80;;;;;;4865648;29;20063;-83
2021/08/27 11:37:53;;;;;;;;;;;23.70;94.90;;;;;;4866175;29;20100;-83
2021/08/27 11:40:18;;;;;;;3.25;1.90;;;23.70;95.00;;;;;;4877069;29;19908;-82
2021/08/27 11:42:45;;;;;;;3.08;2.13;;;23.70;95.10;;;;;;4865626;29;20105;-83
2021/08/27 11:45:18;;;;;;;4.45;2.00;;;23.60;95.20;;;;;;4865461;29;20223;-82
2021/08/27 11:47:45;;;;;;;3.42;1.65;;;23.60;95.30;;;;;;4882065;29;20029;-82
2021/08/27 11:50:22;;;;;;;4.43;2.47;;;23.60;95.40;;;;;;4881540;29;20033;-83
2021/08/27 11:52:49;;;;;;;2.85;1.80;;;23.60;95.50;;;;;;4882209;29;20171;-83
2021/08/27 11:55:16;;;;;;;2.30;1.60;;;23.60;95.50;;;;;;4865273;29;20037;-83
2021/08/27 11:57:53;;;;;;;3.78;1.75;;;23.60;95.70;;;;;;4864063;29;20065;-83
2021/08/27 12:00:35;;;;;;;2.22;1.55;;;23.50;96.00;;;;;;4881322;29;20103;-83
2021/08/27 12:03:01;;;;;;;2.35;1.70;;;23.60;96.00;;;;;;4881571;29;20036;-86
2021/08/27 12:05:30;;;;;;;3.50;1.70;;;23.60;96.10;;;;;;4881533;29;20041;-82
2021/08/27 12:08:07;;;;;;;3.25;1.60;;;23.50;96.10;;;;;;4864783;29;20105;-82
2021/08/27 12:10:38;;;;;;;2.45;1.70;;;23.50;96.20;;;;;;4881046;29;20029;-82
2021/08/27 12:13:06;;;;;;;4.28;1.90;;;23.50;96.20;;;;;;4864731;29;20037;-83
2021/08/27 12:15:39;;;;;;;3.53;1.35;;;23.50;96.30;;;;;;4881107;29;20139;-82
2021/08/27 12:18:10;;;;;;;3.50;2.13;;;23.60;96.30;;;;;;4881439;29;20025;-83
2021/08/27 12:20:39;;;;;;;4.65;2.10;;;23.60;96.40;;;;;;4864102;29;20088;-83
2021/08/27 12:23:17;;;;;;;4.78;2.00;;;23.60;96.50;;;;;;4880838;29;20368;-83
2021/08/27 12:25:48;;;;;;;3.65;2.10;;;23.60;96.50;;;;;;4881463;29;20037;-82
2021/08/27 12:28:16;;;;;;;5.47;2.60;;;23.60;96.40;;;;;;4864635;29;20088;-83
2021/08/27 12:30:44;;;;;;;8.30;2.47;;;23.60;96.20;;;;;;4880686;29;20087;-83
2021/08/27 12:33:10;;;;;;;4.70;2.00;;;23.60;96.20;;;;;;4878698;29;20392;-82
2021/08/27 12:35:35;;;;;;;5.95;2.13;;;23.60;96.10;;;;;;4880459;29;20025;-81
2021/08/27 12:38:02;;;;;;;6.53;2.20;;;23.60;96.00;;;;;;4864364;29;20041;-81
2021/08/27 12:40:30;;;;;;;4.00;2.10;;;23.60;96.00;;;;;;4880656;29;20033;-81
2021/08/27 12:43:02;;;;;;;5.43;2.10;;;23.60;95.90;;;;;;4864289;29;20048;-81
2021/08/27 12:45:43;;;;;;;4.90;1.90;;;23.60;95.90;;;;;;4879295;29;20124;-81
2021/08/27 12:48:10;;;;;;;2.40;1.73;;;23.60;96.20;;;;;;4856525;29;20025;-81
2021/08/27 12:50:48;;;;;;;4.28;2.33;;;23.60;95.90;;;;;;4845757;29;20033;-83
2021/08/27 12:53:14;;;;;;;3.53;1.92;;;23.60;95.90;;;;;;4845395;29;20113;-83